Weather at Châlons-Vatry Airport

Public forecast

Using degrees Celsius for public forecast. Weather courtesy of forecast.io.

Current aviation weather report (METAR) for Châlons-Vatry Airport

2024/05/28 04:00 (retrieved 20 minutes ago)

LFOK 280400Z AUTO 19006KT CAVOK 06/06 Q1020 TEMPO 3000 BR

Closest aviation forecast (TAF) to Châlons-Vatry Airport

Forecast is more than 12 hours old.

Closest forecast is Nancy-Ochey (BA 133) Air Base, 70.3 nm (130.1 km) E.

2024/05/27 15:16 (retrieved 13 hours ago)

TAF LFSO 271508Z 2715/2815 CNL